createdAt,value
2023-04-01T00:03:22.036Z,100198.88
2023-04-01T00:08:19.109Z,100189.94
2023-04-01T00:13:16.109Z,100173.59
2023-04-01T00:18:14.112Z,100173.38
2023-04-01T00:23:10.757Z,100171.03
2023-04-01T00:28:07.311Z,100164.03
2023-04-01T00:33:04.067Z,100159.63
2023-04-01T00:38:01.553Z,100157.06
2023-04-01T00:42:58.481Z,100149.72
2023-04-01T00:47:55.724Z,100134.13
2023-04-01T00:52:53.304Z,100130.59
2023-04-01T00:57:51.698Z,100119.19
2023-04-01T01:02:50.604Z,100112.50
2023-04-01T01:07:53.395Z,100113.31
2023-04-01T01:12:58.607Z,100098.50
2023-04-01T01:17:58.867Z,100108.63
2023-04-01T01:23:11.143Z,100095.38
2023-04-01T01:28:16.320Z,100094.63
2023-04-01T01:33:19.213Z,100085.50
2023-04-01T01:38:18.165Z,100081.78
2023-04-01T01:43:26.513Z,100044.50
2023-04-01T01:48:24.844Z,100056.00
2023-04-01T01:53:22.408Z,100057.97
2023-04-01T01:58:21.381Z,100042.16
2023-04-01T02:03:20.624Z,100042.56
2023-04-01T02:08:23.457Z,100032.69
2023-04-01T02:13:24.146Z,100029.47
2023-04-01T02:18:21.279Z,100031.31
2023-04-01T02:23:18.167Z,100026.56
2023-04-01T02:28:17.644Z,100020.41
2023-04-01T02:33:15.374Z,100016.53
2023-04-01T02:38:12.179Z,100010.09
2023-04-01T02:43:08.969Z,99999.00
2023-04-01T02:48:06.438Z,99995.84
2023-04-01T02:53:06.519Z,100001.31
2023-04-01T02:58:03.230Z,99984.81
2023-04-01T03:03:00.967Z,99981.59
2023-04-01T03:07:58.001Z,99978.09
2023-04-01T03:12:55.263Z,99961.38
2023-04-01T03:17:52.223Z,99992.78
2023-04-01T03:22:48.984Z,99982.50
2023-04-01T03:27:46.702Z,99985.00
2023-04-01T03:32:44.109Z,99982.69
2023-04-01T03:37:44.315Z,99991.38
2023-04-01T03:42:41.152Z,99983.13
2023-04-01T03:47:39.310Z,99972.94
2023-04-01T03:52:36.787Z,99973.78
2023-04-01T03:57:33.661Z,99980.91
2023-04-01T04:02:38.208Z,99955.84
2023-04-01T04:07:36.241Z,99963.47
2023-04-01T04:12:35.946Z,99952.00
2023-04-01T04:17:32.947Z,99949.78
2023-04-01T04:22:29.613Z,99943.28
2023-04-01T04:27:26.998Z,99933.19
2023-04-01T04:32:32.771Z,99954.41
2023-04-01T04:37:29.704Z,99928.25
2023-04-01T04:42:27.318Z,99953.53
2023-04-01T04:47:30.529Z,99950.19
2023-04-01T04:52:27.265Z,99918.22
2023-04-01T04:57:24.159Z,99938.06
2023-04-01T05:02:25.781Z,99934.28
2023-04-01T05:07:23.007Z,99940.06
2023-04-01T05:12:19.701Z,99932.78
2023-04-01T05:17:29.715Z,99923.16
2023-04-01T05:22:26.652Z,99928.25
2023-04-01T05:27:23.513Z,99935.06
2023-04-01T05:32:20.487Z,99936.81
2023-04-01T05:37:18.174Z,99927.31
2023-04-01T05:42:16.228Z,99909.13
2023-04-01T05:47:12.981Z,99922.41
2023-04-01T05:52:09.765Z,99915.75
2023-04-01T05:57:08.117Z,99904.66
2023-04-01T06:02:05.010Z,99893.69
2023-04-01T06:07:02.160Z,99890.91
2023-04-01T06:12:11.924Z,99896.09
2023-04-01T06:17:25.880Z,99899.47
2023-04-01T06:22:34.642Z,99896.38
2023-04-01T06:27:43.380Z,99896.47
2023-04-01T06:32:55.048Z,99906.75
2023-04-01T06:37:57.874Z,99908.91
2023-04-01T06:43:01.940Z,99908.78
2023-04-01T06:48:28.992Z,99904.91
2023-04-01T06:53:55.413Z,99909.72
2023-04-01T06:59:13.373Z,99896.66
2023-04-01T07:04:15.499Z,99904.19
2023-04-01T07:09:15.183Z,99905.88
2023-04-01T07:14:33.114Z,99915.72
2023-04-01T07:19:33.278Z,99914.81
2023-04-01T07:24:35.051Z,99915.25
2023-04-01T07:29:35.372Z,99911.53
2023-04-01T07:34:38.378Z,99926.56
2023-04-01T07:39:42.411Z,99917.31
2023-04-01T07:44:51.073Z,99922.06
2023-04-01T07:50:05.407Z,99921.03
2023-04-01T07:55:11.903Z,99899.47
2023-04-01T08:00:13.294Z,99870.41
2023-04-01T08:05:27.623Z,99896.22
2023-04-01T08:10:27.929Z,99886.97
2023-04-01T08:16:06.851Z,99884.69
2023-04-01T08:21:22.065Z,99873.72
2023-04-01T08:26:22.993Z,99880.75
2023-04-01T08:31:24.324Z,99882.47
2023-04-01T08:36:24.438Z,99875.38
2023-04-01T08:41:39.396Z,99883.41
2023-04-01T08:47:29.033Z,99874.56
2023-04-01T08:52:33.263Z,99875.19
2023-04-01T08:57:39.257Z,99866.66
2023-04-01T09:03:38.317Z,99860.38
2023-04-01T09:08:45.488Z,99868.81
2023-04-01T09:13:56.084Z,99866.28
2023-04-01T09:19:02.574Z,99860.16
2023-04-01T09:24:24.814Z,99860.06
2023-04-01T09:29:32.602Z,99868.06
2023-04-01T09:34:54.410Z,99865.19
2023-04-01T09:40:18.680Z,99860.34
2023-04-01T09:45:24.830Z,99847.38
2023-04-01T09:56:41.433Z,99827.25
2023-04-01T10:01:48.650Z,99841.84
2023-04-01T10:06:58.452Z,99811.63
2023-04-01T10:12:13.390Z,99822.41
2023-04-01T10:17:25.164Z,99817.72
2023-04-01T10:22:33.056Z,99812.00
2023-04-01T10:27:52.259Z,99800.97
2023-04-01T10:33:20.280Z,99785.84
2023-04-01T10:38:47.280Z,99807.19
2023-04-01T10:44:01.770Z,99785.09
2023-04-01T10:49:27.135Z,99792.69
2023-04-01T10:54:44.512Z,99783.63
2023-04-01T11:00:44.872Z,99779.31
2023-04-01T11:06:31.311Z,99784.59
2023-04-01T11:11:46.858Z,99768.00
2023-04-01T11:16:57.474Z,99769.09
2023-04-01T11:22:19.831Z,99756.72
2023-04-01T11:27:31.776Z,99757.84
2023-04-01T11:32:59.924Z,99744.72
2023-04-01T11:38:16.575Z,99726.41
2023-04-01T11:43:44.890Z,99720.91
2023-04-01T11:49:03.828Z,99729.94
2023-04-01T11:54:11.235Z,99726.50
2023-04-01T11:59:27.487Z,99719.34
2023-04-01T12:04:31.290Z,99713.66
2023-04-01T12:09:44.753Z,99708.25
2023-04-01T12:14:45.481Z,99706.31
2023-04-01T12:19:46.183Z,99703.81
2023-04-01T12:24:47.640Z,99697.16
2023-04-01T12:30:02.228Z,99693.38
2023-04-01T12:35:12.739Z,99697.59
2023-04-01T12:40:21.894Z,99696.00
2023-04-01T12:45:32.399Z,99697.31
2023-04-01T12:50:52.056Z,99694.06
2023-04-01T12:55:52.813Z,99691.03
2023-04-01T13:01:06.222Z,99697.94
2023-04-01T13:06:21.128Z,99709.31
2023-04-01T13:11:24.357Z,99708.84
2023-04-01T13:16:30.846Z,99701.72
2023-04-01T13:21:37.214Z,99705.03
2023-04-01T13:26:39.156Z,99702.09
2023-04-01T13:31:40.886Z,99710.34
2023-04-01T13:36:42.915Z,99704.09
2023-04-01T13:41:48.105Z,99697.50
2023-04-01T13:47:03.389Z,99674.03
2023-04-01T13:52:19.098Z,99693.34
2023-04-01T13:57:24.740Z,99685.28
2023-04-01T14:02:40.837Z,99690.88
2023-04-01T14:07:48.485Z,99702.56
2023-04-01T14:12:51.588Z,99703.34
2023-04-01T14:18:07.494Z,99700.50
2023-04-01T14:23:18.939Z,99684.50
2023-04-01T14:28:20.181Z,99680.38
2023-04-01T14:33:22.293Z,99666.22
2023-04-01T14:38:26.993Z,99647.88
2023-04-01T14:43:31.711Z,99642.47
2023-04-01T14:48:33.140Z,99642.28
2023-04-01T14:53:32.478Z,99639.78
2023-04-01T14:58:41.343Z,99644.22
2023-04-01T15:03:43.651Z,99641.88
2023-04-01T15:08:48.249Z,99638.25
2023-04-01T15:13:54.408Z,99648.84
2023-04-01T15:18:54.121Z,99651.47
2023-04-01T15:23:55.433Z,99658.16
2023-04-01T15:29:01.575Z,99656.94
2023-04-01T15:34:07.394Z,99657.28
2023-04-01T15:39:12.363Z,99672.69
2023-04-01T15:44:23.835Z,99676.59
2023-04-01T15:49:34.591Z,99653.03
2023-04-01T15:55:04.378Z,99663.25
2023-04-01T16:00:11.238Z,99660.00
2023-04-01T16:05:21.618Z,99680.72
2023-04-01T16:10:36.192Z,99686.69
2023-04-01T16:15:38.626Z,99688.03
2023-04-01T16:20:45.516Z,99697.47
2023-04-01T16:25:46.944Z,99718.69
2023-04-01T16:30:49.955Z,99718.81
2023-04-01T16:35:49.887Z,99715.72
2023-04-01T16:40:51.374Z,99714.25
2023-04-01T16:45:54.140Z,99704.09
2023-04-01T16:50:55.852Z,99701.31
2023-04-01T16:55:57.320Z,99711.09
2023-04-01T17:00:56.421Z,99710.94
2023-04-01T17:06:05.272Z,99699.81
2023-04-01T17:11:07.779Z,99695.41
2023-04-01T17:16:09.076Z,99698.72
2023-04-01T17:21:08.734Z,99700.94
2023-04-01T17:26:16.998Z,99707.94
2023-04-01T17:31:24.327Z,99695.34
2023-04-01T17:36:38.927Z,99699.00
2023-04-01T17:41:43.112Z,99706.19
2023-04-01T17:46:46.111Z,99705.06
2023-04-01T17:51:47.467Z,99705.97
2023-04-01T17:56:50.727Z,99701.00
2023-04-01T18:01:55.356Z,99715.09
2023-04-01T18:07:08.526Z,99724.53
2023-04-01T18:12:18.730Z,99719.03
2023-04-01T18:17:20.739Z,99715.56
2023-04-01T18:22:21.863Z,99718.31
2023-04-01T18:27:22.762Z,99724.19
2023-04-01T18:32:25.329Z,99727.66
2023-04-01T18:37:26.681Z,99735.03
2023-04-01T18:42:30.480Z,99748.81
2023-04-01T18:47:31.565Z,99754.84
2023-04-01T18:52:36.033Z,99771.94
2023-04-01T18:57:40.570Z,99770.03
2023-04-01T19:02:40.129Z,99770.09
2023-04-01T19:07:45.212Z,99809.75
2023-04-01T19:12:49.334Z,99814.13
2023-04-01T19:17:52.355Z,99806.28
2023-04-01T19:23:04.751Z,99797.19
2023-04-01T19:28:08.271Z,99807.63
2023-04-01T19:33:11.047Z,99810.16
2023-04-01T19:38:12.872Z,99806.50
2023-04-01T19:43:12.424Z,99807.56
2023-04-01T19:48:15.073Z,99800.00
2023-04-01T19:53:17.311Z,99807.63
2023-04-01T19:58:18.063Z,99820.09
2023-04-01T20:03:22.200Z,99815.19
2023-04-01T20:08:25.099Z,99827.25
2023-04-01T20:13:27.063Z,99828.31
2023-04-01T20:18:27.889Z,99832.28
2023-04-01T20:23:34.638Z,99832.66
2023-04-01T20:28:33.650Z,99825.38
2023-04-01T20:33:38.595Z,99825.91
2023-04-01T20:38:58.810Z,99843.84
2023-04-01T20:43:59.328Z,99844.88
2023-04-01T20:49:13.523Z,99848.66
2023-04-01T20:54:23.024Z,99847.19
2023-04-01T20:59:32.790Z,99852.59
2023-04-01T21:04:35.074Z,99854.34
2023-04-01T21:09:40.454Z,99850.47
2023-04-01T21:14:47.905Z,99860.63
2023-04-01T21:19:58.447Z,99869.78
2023-04-01T21:24:59.762Z,99874.59
2023-04-01T21:29:59.965Z,99866.41
2023-04-01T21:35:01.262Z,99871.38
2023-04-01T21:40:13.544Z,99878.22
2023-04-01T21:45:21.811Z,99882.00
2023-04-01T21:50:40.403Z,99883.56
2023-04-01T21:56:04.064Z,99871.31
2023-04-01T22:01:09.669Z,99873.47
2023-04-01T22:06:10.265Z,99874.53
2023-04-01T22:11:10.958Z,99875.03
2023-04-01T22:16:14.043Z,99873.50
2023-04-01T22:21:13.624Z,99884.25
2023-04-01T22:26:13.982Z,99881.84
2023-04-01T22:31:17.251Z,99881.91
2023-04-01T22:36:19.249Z,99885.88
2023-04-01T22:41:20.482Z,99857.69
2023-04-01T22:46:24.146Z,99881.84
2023-04-01T22:51:23.915Z,99889.56
2023-04-01T22:56:22.912Z,99875.75
2023-04-01T23:01:23.500Z,99879.13
2023-04-01T23:06:25.301Z,99885.34
2023-04-01T23:11:26.013Z,99882.91
2023-04-01T23:16:27.103Z,99887.44
2023-04-01T23:21:29.371Z,99880.91
2023-04-01T23:26:32.870Z,99883.06
2023-04-01T23:31:31.596Z,99872.91
2023-04-01T23:36:29.984Z,99866.06
2023-04-01T23:41:28.378Z,99883.25
2023-04-01T23:46:25.763Z,99884.41
2023-04-01T23:51:23.840Z,99889.13
2023-04-01T23:56:21.429Z,99881.38
